sensor_id;sensor_type;location;lat;lon;timestamp;temperature;humidity
61398;DHT22;47267;48.130;-2.040;2023-04-12T00:00:33;20.10;48.70
61398;DHT22;47267;48.130;-2.040;2023-04-12T00:03:00;20.10;48.70
61398;DHT22;47267;48.130;-2.040;2023-04-12T00:05:28;20.10;48.70
61398;DHT22;47267;48.130;-2.040;2023-04-12T00:07:55;20.10;48.70
61398;DHT22;47267;48.130;-2.040;2023-04-12T00:10:21;20.10;48.70
61398;DHT22;47267;48.130;-2.040;2023-04-12T00:12:47;20.10;48.70
61398;DHT22;47267;48.130;-2.040;2023-04-12T00:15:14;20.10;48.80
61398;DHT22;47267;48.130;-2.040;2023-04-12T00:17:40;20.10;48.70
61398;DHT22;47267;48.130;-2.040;2023-04-12T00:20:06;20.10;48.70
61398;DHT22;47267;48.130;-2.040;2023-04-12T00:22:37;20.10;48.70
61398;DHT22;47267;48.130;-2.040;2023-04-12T00:25:03;20.10;48.70
61398;DHT22;47267;48.130;-2.040;2023-04-12T00:27:29;20.10;48.70
61398;DHT22;47267;48.130;-2.040;2023-04-12T00:29:54;20.10;48.70
61398;DHT22;47267;48.130;-2.040;2023-04-12T00:32:20;20.10;48.70
61398;DHT22;47267;48.130;-2.040;2023-04-12T00:34:46;20.20;48.80
61398;DHT22;47267;48.130;-2.040;2023-04-12T00:37:11;20.10;48.80
61398;DHT22;47267;48.130;-2.040;2023-04-12T00:39:38;20.20;48.80
61398;DHT22;47267;48.130;-2.040;2023-04-12T00:42:04;20.10;48.80
61398;DHT22;47267;48.130;-2.040;2023-04-12T00:44:33;20.20;48.80
61398;DHT22;47267;48.130;-2.040;2023-04-12T00:47:00;20.20;48.80
61398;DHT22;47267;48.130;-2.040;2023-04-12T00:49:29;20.10;48.70
61398;DHT22;47267;48.130;-2.040;2023-04-12T00:52:07;20.10;48.80
61398;DHT22;47267;48.130;-2.040;2023-04-12T00:54:33;20.10;48.80
61398;DHT22;47267;48.130;-2.040;2023-04-12T00:57:00;20.20;48.80
61398;DHT22;47267;48.130;-2.040;2023-04-12T00:59:26;20.10;48.80
61398;DHT22;47267;48.130;-2.040;2023-04-12T01:01:56;20.10;48.80
61398;DHT22;47267;48.130;-2.040;2023-04-12T01:04:22;20.20;48.80
61398;DHT22;47267;48.130;-2.040;2023-04-12T01:07:14;20.20;48.80
61398;DHT22;47267;48.130;-2.040;2023-04-12T01:12:35;20.10;48.70
61398;DHT22;47267;48.130;-2.040;2023-04-12T01:15:10;20.10;48.80
61398;DHT22;47267;48.130;-2.040;2023-04-12T01:17:56;20.10;48.70
61398;DHT22;47267;48.130;-2.040;2023-04-12T01:20:27;20.10;48.80
61398;DHT22;47267;48.130;-2.040;2023-04-12T01:28:15;20.10;48.80
61398;DHT22;47267;48.130;-2.040;2023-04-12T01:30:45;20.10;48.80
61398;DHT22;47267;48.130;-2.040;2023-04-12T01:33:13;20.10;48.80
61398;DHT22;47267;48.130;-2.040;2023-04-12T01:35:41;20.10;48.80
61398;DHT22;47267;48.130;-2.040;2023-04-12T01:38:07;20.10;48.80
61398;DHT22;47267;48.130;-2.040;2023-04-12T01:40:34;20.10;48.80
61398;DHT22;47267;48.130;-2.040;2023-04-12T01:43:07;20.10;48.80
61398;DHT22;47267;48.130;-2.040;2023-04-12T01:45:33;20.10;48.80
61398;DHT22;47267;48.130;-2.040;2023-04-12T01:48:00;20.10;48.70
61398;DHT22;47267;48.130;-2.040;2023-04-12T01:53:22;20.10;48.80
61398;DHT22;47267;48.130;-2.040;2023-04-12T01:55:49;20.10;48.80
61398;DHT22;47267;48.130;-2.040;2023-04-12T01:58:21;20.10;48.80
61398;DHT22;47267;48.130;-2.040;2023-04-12T02:00:49;20.10;48.80
61398;DHT22;47267;48.130;-2.040;2023-04-12T02:03:15;20.10;48.80
61398;DHT22;47267;48.130;-2.040;2023-04-12T02:05:42;20.10;48.80
61398;DHT22;47267;48.130;-2.040;2023-04-12T02:08:09;20.10;48.80
61398;DHT22;47267;48.130;-2.040;2023-04-12T02:10:35;20.10;48.80
61398;DHT22;47267;48.130;-2.040;2023-04-12T02:13:04;20.10;48.80
61398;DHT22;47267;48.130;-2.040;2023-04-12T02:15:30;20.10;48.80
61398;DHT22;47267;48.130;-2.040;2023-04-12T02:17:56;20.10;48.80
61398;DHT22;47267;48.130;-2.040;2023-04-12T02:20:24;20.10;48.80
61398;DHT22;47267;48.130;-2.040;2023-04-12T02:22:50;20.10;48.80
61398;DHT22;47267;48.130;-2.040;2023-04-12T02:25:16;20.10;48.90
61398;DHT22;47267;48.130;-2.040;2023-04-12T02:27:43;20.10;48.80
61398;DHT22;47267;48.130;-2.040;2023-04-12T02:30:09;20.10;48.80
61398;DHT22;47267;48.130;-2.040;2023-04-12T02:32:35;20.10;48.80
61398;DHT22;47267;48.130;-2.040;2023-04-12T02:35:10;20.10;48.90
61398;DHT22;47267;48.130;-2.040;2023-04-12T02:37:37;20.10;48.80
61398;DHT22;47267;48.130;-2.040;2023-04-12T02:40:03;20.10;48.90
61398;DHT22;47267;48.130;-2.040;2023-04-12T02:42:31;20.10;48.90
61398;DHT22;47267;48.130;-2.040;2023-04-12T02:44:57;20.10;48.90
61398;DHT22;47267;48.130;-2.040;2023-04-12T02:47:23;20.00;48.80
61398;DHT22;47267;48.130;-2.040;2023-04-12T02:49:53;20.00;48.80
61398;DHT22;47267;48.130;-2.040;2023-04-12T02:52:19;20.10;48.90
61398;DHT22;47267;48.130;-2.040;2023-04-12T02:54:45;20.10;48.90
61398;DHT22;47267;48.130;-2.040;2023-04-12T02:57:11;20.00;48.80
61398;DHT22;47267;48.130;-2.040;2023-04-12T02:59:38;20.00;48.80
61398;DHT22;47267;48.130;-2.040;2023-04-12T03:02:04;20.00;48.80
61398;DHT22;47267;48.130;-2.040;2023-04-12T03:04:29;20.00;48.80
61398;DHT22;47267;48.130;-2.040;2023-04-12T03:06:55;20.00;49.40
61398;DHT22;47267;48.130;-2.040;2023-04-12T03:09:21;20.00;48.80
61398;DHT22;47267;48.130;-2.040;2023-04-12T03:11:47;20.00;48.80
61398;DHT22;47267;48.130;-2.040;2023-04-12T03:14:13;20.00;48.90
61398;DHT22;47267;48.130;-2.040;2023-04-12T03:16:39;20.00;48.80
61398;DHT22;47267;48.130;-2.040;2023-04-12T03:19:05;20.00;48.80
61398;DHT22;47267;48.130;-2.040;2023-04-12T03:21:31;20.00;48.80
61398;DHT22;47267;48.130;-2.040;2023-04-12T03:23:58;20.00;48.80
61398;DHT22;47267;48.130;-2.040;2023-04-12T03:26:24;20.00;48.80
61398;DHT22;47267;48.130;-2.040;2023-04-12T03:28:58;20.00;48.80
61398;DHT22;47267;48.130;-2.040;2023-04-12T03:31:23;20.00;48.90
61398;DHT22;47267;48.130;-2.040;2023-04-12T03:33:51;20.00;48.90
61398;DHT22;47267;48.130;-2.040;2023-04-12T03:36:18;20.00;48.80
61398;DHT22;47267;48.130;-2.040;2023-04-12T03:38:45;20.00;48.80
61398;DHT22;47267;48.130;-2.040;2023-04-12T03:41:11;20.00;48.80
61398;DHT22;47267;48.130;-2.040;2023-04-12T03:43:36;20.00;48.80
61398;DHT22;47267;48.130;-2.040;2023-04-12T03:46:03;20.00;48.80
61398;DHT22;47267;48.130;-2.040;2023-04-12T03:48:30;20.00;48.80
61398;DHT22;47267;48.130;-2.040;2023-04-12T03:50:55;20.00;48.90
61398;DHT22;47267;48.130;-2.040;2023-04-12T03:53:24;20.00;48.90
61398;DHT22;47267;48.130;-2.040;2023-04-12T03:55:51;20.00;48.90
61398;DHT22;47267;48.130;-2.040;2023-04-12T03:58:19;20.00;48.80
61398;DHT22;47267;48.130;-2.040;2023-04-12T04:00:44;20.00;48.80
61398;DHT22;47267;48.130;-2.040;2023-04-12T04:03:11;20.00;48.80
61398;DHT22;47267;48.130;-2.040;2023-04-12T04:05:37;20.00;48.90
61398;DHT22;47267;48.130;-2.040;2023-04-12T04:08:03;20.00;48.90
61398;DHT22;47267;48.130;-2.040;2023-04-12T04:10:31;20.00;48.80
61398;DHT22;47267;48.130;-2.040;2023-04-12T04:12:57;20.00;48.80
61398;DHT22;47267;48.130;-2.040;2023-04-12T04:15:26;20.00;48.90
61398;DHT22;47267;48.130;-2.040;2023-04-12T04:17:52;20.00;49.40
61398;DHT22;47267;48.130;-2.040;2023-04-12T04:20:18;20.00;48.90
61398;DHT22;47267;48.130;-2.040;2023-04-12T04:22:45;20.00;48.90
61398;DHT22;47267;48.130;-2.040;2023-04-12T04:25:13;19.90;48.80
61398;DHT22;47267;48.130;-2.040;2023-04-12T04:27:41;20.00;48.90
61398;DHT22;47267;48.130;-2.040;2023-04-12T04:30:10;19.90;48.80
61398;DHT22;47267;48.130;-2.040;2023-04-12T04:32:39;19.90;48.80
61398;DHT22;47267;48.130;-2.040;2023-04-12T04:35:05;20.00;48.80
61398;DHT22;47267;48.130;-2.040;2023-04-12T04:37:31;20.00;48.90
61398;DHT22;47267;48.130;-2.040;2023-04-12T04:40:00;19.90;48.80
61398;DHT22;47267;48.130;-2.040;2023-04-12T04:42:27;20.00;48.90
61398;DHT22;47267;48.130;-2.040;2023-04-12T04:44:54;19.90;48.80
61398;DHT22;47267;48.130;-2.040;2023-04-12T04:47:27;20.00;48.80
61398;DHT22;47267;48.130;-2.040;2023-04-12T04:49:58;19.90;48.80
61398;DHT22;47267;48.130;-2.040;2023-04-12T04:52:24;19.90;48.80
61398;DHT22;47267;48.130;-2.040;2023-04-12T04:54:50;20.00;48.80
61398;DHT22;47267;48.130;-2.040;2023-04-12T04:57:16;19.90;48.80
61398;DHT22;47267;48.130;-2.040;2023-04-12T04:59:42;19.90;48.80
61398;DHT22;47267;48.130;-2.040;2023-04-12T05:02:09;19.90;48.80
61398;DHT22;47267;48.130;-2.040;2023-04-12T05:04:35;19.90;48.80
61398;DHT22;47267;48.130;-2.040;2023-04-12T05:07:02;19.90;48.80
61398;DHT22;47267;48.130;-2.040;2023-04-12T05:09:27;19.90;48.80
61398;DHT22;47267;48.130;-2.040;2023-04-12T05:11:53;19.90;48.80
61398;DHT22;47267;48.130;-2.040;2023-04-12T05:14:18;19.90;48.80
61398;DHT22;47267;48.130;-2.040;2023-04-12T05:16:44;19.90;48.80
61398;DHT22;47267;48.130;-2.040;2023-04-12T05:19:10;20.00;48.80
61398;DHT22;47267;48.130;-2.040;2023-04-12T05:21:36;19.90;48.80
61398;DHT22;47267;48.130;-2.040;2023-04-12T05:24:02;19.90;48.80
61398;DHT22;47267;48.130;-2.040;2023-04-12T05:26:27;19.90;48.70
61398;DHT22;47267;48.130;-2.040;2023-04-12T05:28:53;19.90;48.80
61398;DHT22;47267;48.130;-2.040;2023-04-12T05:31:19;19.90;48.80
61398;DHT22;47267;48.130;-2.040;2023-04-12T05:33:45;19.90;48.70
61398;DHT22;47267;48.130;-2.040;2023-04-12T05:36:11;19.90;48.80
61398;DHT22;47267;48.130;-2.040;2023-04-12T05:38:36;19.90;48.80
61398;DHT22;47267;48.130;-2.040;2023-04-12T05:41:02;19.90;48.80
61398;DHT22;47267;48.130;-2.040;2023-04-12T05:43:31;19.90;48.80
61398;DHT22;47267;48.130;-2.040;2023-04-12T05:45:57;19.90;48.80
61398;DHT22;47267;48.130;-2.040;2023-04-12T05:48:23;19.90;48.80
61398;DHT22;47267;48.130;-2.040;2023-04-12T05:50:53;19.90;48.80
61398;DHT22;47267;48.130;-2.040;2023-04-12T05:53:19;19.90;48.80
61398;DHT22;47267;48.130;-2.040;2023-04-12T05:55:46;19.90;48.80
61398;DHT22;47267;48.130;-2.040;2023-04-12T05:58:11;19.90;48.80
61398;DHT22;47267;48.130;-2.040;2023-04-12T06:00:40;19.90;48.80
61398;DHT22;47267;48.130;-2.040;2023-04-12T06:03:08;19.90;48.80
61398;DHT22;47267;48.130;-2.040;2023-04-12T06:05:34;19.90;48.80
61398;DHT22;47267;48.130;-2.040;2023-04-12T06:08:00;19.90;48.80
61398;DHT22;47267;48.130;-2.040;2023-04-12T06:10:27;19.90;48.80
61398;DHT22;47267;48.130;-2.040;2023-04-12T06:12:53;19.90;48.90
61398;DHT22;47267;48.130;-2.040;2023-04-12T06:15:18;19.90;49.30
61398;DHT22;47267;48.130;-2.040;2023-04-12T06:17:45;19.90;48.80
61398;DHT22;47267;48.130;-2.040;2023-04-12T06:20:11;19.90;48.80
61398;DHT22;47267;48.130;-2.040;2023-04-12T06:22:37;19.90;48.90
61398;DHT22;47267;48.130;-2.040;2023-04-12T06:25:03;19.90;48.90
61398;DHT22;47267;48.130;-2.040;2023-04-12T06:27:29;19.90;48.90
61398;DHT22;47267;48.130;-2.040;2023-04-12T06:29:55;19.90;48.90
61398;DHT22;47267;48.130;-2.040;2023-04-12T06:32:21;19.90;48.90
61398;DHT22;47267;48.130;-2.040;2023-04-12T06:34:47;19.90;48.90
61398;DHT22;47267;48.130;-2.040;2023-04-12T06:37:12;19.90;48.90
61398;DHT22;47267;48.130;-2.040;2023-04-12T06:39:38;19.90;48.90
61398;DHT22;47267;48.130;-2.040;2023-04-12T06:42:04;19.90;48.90
61398;DHT22;47267;48.130;-2.040;2023-04-12T06:44:30;19.90;48.90
61398;DHT22;47267;48.130;-2.040;2023-04-12T06:46:57;19.90;48.90
61398;DHT22;47267;48.130;-2.040;2023-04-12T06:49:23;19.90;48.90
61398;DHT22;47267;48.130;-2.040;2023-04-12T06:51:50;19.90;48.90
61398;DHT22;47267;48.130;-2.040;2023-04-12T06:54:16;19.90;49.00
61398;DHT22;47267;48.130;-2.040;2023-04-12T06:56:41;19.90;49.00
61398;DHT22;47267;48.130;-2.040;2023-04-12T06:59:07;19.90;48.90
61398;DHT22;47267;48.130;-2.040;2023-04-12T07:01:33;19.90;48.90
61398;DHT22;47267;48.130;-2.040;2023-04-12T07:03:59;19.90;49.00
61398;DHT22;47267;48.130;-2.040;2023-04-12T07:06:26;19.90;48.90
61398;DHT22;47267;48.130;-2.040;2023-04-12T07:08:52;19.90;49.00
61398;DHT22;47267;48.130;-2.040;2023-04-12T07:11:18;19.90;49.00
61398;DHT22;47267;48.130;-2.040;2023-04-12T07:13:46;19.90;48.90
61398;DHT22;47267;48.130;-2.040;2023-04-12T07:16:12;19.80;48.90
61398;DHT22;47267;48.130;-2.040;2023-04-12T07:18:38;19.80;48.90
61398;DHT22;47267;48.130;-2.040;2023-04-12T07:21:05;19.90;49.00
61398;DHT22;47267;48.130;-2.040;2023-04-12T07:23:31;19.80;49.50
61398;DHT22;47267;48.130;-2.040;2023-04-12T07:26:00;19.90;49.00
61398;DHT22;47267;48.130;-2.040;2023-04-12T07:28:26;19.80;48.90
61398;DHT22;47267;48.130;-2.040;2023-04-12T07:30:52;19.80;49.00
61398;DHT22;47267;48.130;-2.040;2023-04-12T07:33:18;19.80;49.00
61398;DHT22;47267;48.130;-2.040;2023-04-12T07:35:44;19.90;49.00
61398;DHT22;47267;48.130;-2.040;2023-04-12T07:38:10;19.90;49.10
61398;DHT22;47267;48.130;-2.040;2023-04-12T07:40:35;19.80;49.00
61398;DHT22;47267;48.130;-2.040;2023-04-12T07:43:01;19.80;49.00
61398;DHT22;47267;48.130;-2.040;2023-04-12T07:45:27;19.80;49.00
61398;DHT22;47267;48.130;-2.040;2023-04-12T07:47:52;19.80;49.00
61398;DHT22;47267;48.130;-2.040;2023-04-12T07:50:18;19.80;49.00
61398;DHT22;47267;48.130;-2.040;2023-04-12T07:52:44;19.80;49.00
61398;DHT22;47267;48.130;-2.040;2023-04-12T07:55:09;19.80;49.00
61398;DHT22;47267;48.130;-2.040;2023-04-12T07:57:36;19.80;49.00
61398;DHT22;47267;48.130;-2.040;2023-04-12T08:00:01;19.80;49.00
61398;DHT22;47267;48.130;-2.040;2023-04-12T08:02:28;19.80;49.00
61398;DHT22;47267;48.130;-2.040;2023-04-12T08:04:54;19.80;49.00
61398;DHT22;47267;48.130;-2.040;2023-04-12T08:07:20;19.80;49.00
61398;DHT22;47267;48.130;-2.040;2023-04-12T08:09:47;19.80;49.00
61398;DHT22;47267;48.130;-2.040;2023-04-12T08:12:13;19.80;49.00
61398;DHT22;47267;48.130;-2.040;2023-04-12T08:14:39;19.80;49.00
61398;DHT22;47267;48.130;-2.040;2023-04-12T08:17:05;19.80;49.00
61398;DHT22;47267;48.130;-2.040;2023-04-12T08:19:31;19.80;49.00
61398;DHT22;47267;48.130;-2.040;2023-04-12T08:21:57;19.80;49.00
61398;DHT22;47267;48.130;-2.040;2023-04-12T08:24:23;19.80;49.00
61398;DHT22;47267;48.130;-2.040;2023-04-12T08:26:52;19.90;49.00
61398;DHT22;47267;48.130;-2.040;2023-04-12T08:29:17;19.80;49.00
61398;DHT22;47267;48.130;-2.040;2023-04-12T08:31:43;19.80;49.00
61398;DHT22;47267;48.130;-2.040;2023-04-12T08:34:10;19.80;49.00
61398;DHT22;47267;48.130;-2.040;2023-04-12T08:36:35;19.80;49.00
61398;DHT22;47267;48.130;-2.040;2023-04-12T08:39:01;19.80;49.00
61398;DHT22;47267;48.130;-2.040;2023-04-12T08:41:27;19.80;49.00
61398;DHT22;47267;48.130;-2.040;2023-04-12T08:43:53;19.80;49.00
61398;DHT22;47267;48.130;-2.040;2023-04-12T08:46:20;19.80;49.00
61398;DHT22;47267;48.130;-2.040;2023-04-12T08:48:48;19.80;49.00
61398;DHT22;47267;48.130;-2.040;2023-04-12T08:51:16;19.80;49.00
61398;DHT22;47267;48.130;-2.040;2023-04-12T08:53:42;19.80;49.00
61398;DHT22;47267;48.130;-2.040;2023-04-12T08:56:12;19.80;49.00
61398;DHT22;47267;48.130;-2.040;2023-04-12T08:58:46;19.80;49.00
61398;DHT22;47267;48.130;-2.040;2023-04-12T09:01:18;19.80;49.00
61398;DHT22;47267;48.130;-2.040;2023-04-12T09:03:45;19.80;49.00
61398;DHT22;47267;48.130;-2.040;2023-04-12T09:06:11;19.80;49.00
61398;DHT22;47267;48.130;-2.040;2023-04-12T09:08:52;19.80;49.00
61398;DHT22;47267;48.130;-2.040;2023-04-12T09:11:27;19.80;49.00
61398;DHT22;47267;48.130;-2.040;2023-04-12T09:13:54;19.80;49.00
61398;DHT22;47267;48.130;-2.040;2023-04-12T09:16:40;19.80;48.90
61398;DHT22;47267;48.130;-2.040;2023-04-12T09:19:07;19.80;48.90
61398;DHT22;47267;48.130;-2.040;2023-04-12T09:21:36;19.80;48.90
61398;DHT22;47267;48.130;-2.040;2023-04-12T09:24:11;19.80;48.90
61398;DHT22;47267;48.130;-2.040;2023-04-12T09:26:38;19.80;48.90
61398;DHT22;47267;48.130;-2.040;2023-04-12T09:29:04;19.90;49.00
61398;DHT22;47267;48.130;-2.040;2023-04-12T09:31:30;19.80;48.90
61398;DHT22;47267;48.130;-2.040;2023-04-12T09:34:05;19.80;48.90
61398;DHT22;47267;48.130;-2.040;2023-04-12T09:36:38;19.80;49.00
61398;DHT22;47267;48.130;-2.040;2023-04-12T09:39:05;19.80;48.90
61398;DHT22;47267;48.130;-2.040;2023-04-12T09:41:32;19.80;48.90
61398;DHT22;47267;48.130;-2.040;2023-04-12T09:43:58;19.80;48.90
61398;DHT22;47267;48.130;-2.040;2023-04-12T09:46:24;19.80;48.90
61398;DHT22;47267;48.130;-2.040;2023-04-12T09:48:52;19.80;48.90
61398;DHT22;47267;48.130;-2.040;2023-04-12T09:51:31;19.80;48.90
61398;DHT22;47267;48.130;-2.040;2023-04-12T09:54:00;19.80;48.90
61398;DHT22;47267;48.130;-2.040;2023-04-12T09:56:32;19.80;48.90
61398;DHT22;47267;48.130;-2.040;2023-04-12T09:59:05;19.80;48.90
61398;DHT22;47267;48.130;-2.040;2023-04-12T10:01:37;19.80;48.90
61398;DHT22;47267;48.130;-2.040;2023-04-12T10:04:05;19.80;48.90
61398;DHT22;47267;48.130;-2.040;2023-04-12T10:06:32;19.80;48.90
61398;DHT22;47267;48.130;-2.040;2023-04-12T10:08:59;19.90;48.90
61398;DHT22;47267;48.130;-2.040;2023-04-12T10:11:27;19.90;49.00
61398;DHT22;47267;48.130;-2.040;2023-04-12T10:13:55;19.90;48.90
61398;DHT22;47267;48.130;-2.040;2023-04-12T10:16:21;19.90;48.90
61398;DHT22;47267;48.130;-2.040;2023-04-12T10:18:49;19.90;48.90
61398;DHT22;47267;48.130;-2.040;2023-04-12T10:21:15;19.80;48.90
61398;DHT22;47267;48.130;-2.040;2023-04-12T10:23:46;19.90;48.90
61398;DHT22;47267;48.130;-2.040;2023-04-12T10:26:14;19.90;48.90
61398;DHT22;47267;48.130;-2.040;2023-04-12T10:28:41;19.90;48.90
61398;DHT22;47267;48.130;-2.040;2023-04-12T10:31:27;19.90;48.90
61398;DHT22;47267;48.130;-2.040;2023-04-12T10:33:54;19.90;48.90
61398;DHT22;47267;48.130;-2.040;2023-04-12T10:39:15;19.90;48.90
61398;DHT22;47267;48.130;-2.040;2023-04-12T10:42:16;19.90;48.80
61398;DHT22;47267;48.130;-2.040;2023-04-12T10:44:43;19.90;48.90
61398;DHT22;47267;48.130;-2.040;2023-04-12T10:47:09;19.90;48.90
61398;DHT22;47267;48.130;-2.040;2023-04-12T10:49:37;19.90;48.90
61398;DHT22;47267;48.130;-2.040;2023-04-12T10:52:09;19.90;48.90
61398;DHT22;47267;48.130;-2.040;2023-04-12T10:54:35;19.90;48.90
61398;DHT22;47267;48.130;-2.040;2023-04-12T10:57:05;19.90;48.80
61398;DHT22;47267;48.130;-2.040;2023-04-12T10:59:49;19.90;48.80
61398;DHT22;47267;48.130;-2.040;2023-04-12T11:02:16;19.90;48.80
61398;DHT22;47267;48.130;-2.040;2023-04-12T11:05:07;19.90;48.90
61398;DHT22;47267;48.130;-2.040;2023-04-12T11:07:42;19.90;48.90
61398;DHT22;47267;48.130;-2.040;2023-04-12T11:10:14;19.90;48.80
61398;DHT22;47267;48.130;-2.040;2023-04-12T11:12:41;19.90;48.80
61398;DHT22;47267;48.130;-2.040;2023-04-12T11:15:12;19.90;48.80
61398;DHT22;47267;48.130;-2.040;2023-04-12T11:17:38;19.90;48.80
61398;DHT22;47267;48.130;-2.040;2023-04-12T11:20:09;19.90;48.80
61398;DHT22;47267;48.130;-2.040;2023-04-12T11:22:37;19.90;48.80
61398;DHT22;47267;48.130;-2.040;2023-04-12T11:25:03;20.00;48.90
61398;DHT22;47267;48.130;-2.040;2023-04-12T11:27:31;19.90;48.80
61398;DHT22;47267;48.130;-2.040;2023-04-12T11:29:58;20.00;48.90
61398;DHT22;47267;48.130;-2.040;2023-04-12T11:32:28;20.00;48.90
61398;DHT22;47267;48.130;-2.040;2023-04-12T11:34:55;20.00;48.90
61398;DHT22;47267;48.130;-2.040;2023-04-12T11:37:22;20.00;48.90
61398;DHT22;47267;48.130;-2.040;2023-04-12T11:39:50;20.00;48.90
61398;DHT22;47267;48.130;-2.040;2023-04-12T11:42:19;20.00;48.90
61398;DHT22;47267;48.130;-2.040;2023-04-12T11:44:46;20.00;48.90
61398;DHT22;47267;48.130;-2.040;2023-04-12T11:47:19;20.00;48.90
61398;DHT22;47267;48.130;-2.040;2023-04-12T11:49:50;20.00;48.90
61398;DHT22;47267;48.130;-2.040;2023-04-12T11:52:18;20.10;49.00
61398;DHT22;47267;48.130;-2.040;2023-04-12T11:54:49;20.10;48.90
61398;DHT22;47267;48.130;-2.040;2023-04-12T11:57:17;20.10;48.90
61398;DHT22;47267;48.130;-2.040;2023-04-12T11:59:47;20.10;48.90
61398;DHT22;47267;48.130;-2.040;2023-04-12T12:02:14;20.10;48.90
61398;DHT22;47267;48.130;-2.040;2023-04-12T12:04:47;20.20;49.00
61398;DHT22;47267;48.130;-2.040;2023-04-12T12:07:14;20.20;49.00
61398;DHT22;47267;48.130;-2.040;2023-04-12T12:09:42;20.20;48.90
61398;DHT22;47267;48.130;-2.040;2023-04-12T12:12:09;20.20;48.90
61398;DHT22;47267;48.130;-2.040;2023-04-12T12:14:35;20.20;48.90
61398;DHT22;47267;48.130;-2.040;2023-04-12T12:17:02;20.20;49.50
61398;DHT22;47267;48.130;-2.040;2023-04-12T12:19:40;20.20;48.90
61398;DHT22;47267;48.130;-2.040;2023-04-12T12:22:13;20.30;49.00
61398;DHT22;47267;48.130;-2.040;2023-04-12T12:24:55;20.30;49.00
61398;DHT22;47267;48.130;-2.040;2023-04-12T12:27:23;20.30;48.90
61398;DHT22;47267;48.130;-2.040;2023-04-12T12:29:50;20.30;48.90
61398;DHT22;47267;48.130;-2.040;2023-04-12T12:32:19;20.30;48.90
61398;DHT22;47267;48.130;-2.040;2023-04-12T12:34:53;20.30;48.90
61398;DHT22;47267;48.130;-2.040;2023-04-12T12:37:22;20.30;48.90
61398;DHT22;47267;48.130;-2.040;2023-04-12T12:40:06;20.30;48.90
61398;DHT22;47267;48.130;-2.040;2023-04-12T12:42:52;20.30;48.90
61398;DHT22;47267;48.130;-2.040;2023-04-12T12:45:22;20.40;48.90
61398;DHT22;47267;48.130;-2.040;2023-04-12T12:47:59;20.40;48.90
61398;DHT22;47267;48.130;-2.040;2023-04-12T12:50:29;20.40;48.90
61398;DHT22;47267;48.130;-2.040;2023-04-12T12:52:55;20.40;48.90
61398;DHT22;47267;48.130;-2.040;2023-04-12T12:55:22;20.40;48.90
61398;DHT22;47267;48.130;-2.040;2023-04-12T12:57:52;20.40;48.80
61398;DHT22;47267;48.130;-2.040;2023-04-12T13:00:20;20.40;48.80
61398;DHT22;47267;48.130;-2.040;2023-04-12T13:02:46;20.40;48.80
61398;DHT22;47267;48.130;-2.040;2023-04-12T13:05:12;20.40;48.80
61398;DHT22;47267;48.130;-2.040;2023-04-12T13:07:38;20.40;48.80
61398;DHT22;47267;48.130;-2.040;2023-04-12T13:10:05;20.40;48.80
61398;DHT22;47267;48.130;-2.040;2023-04-12T13:12:31;20.50;48.80
61398;DHT22;47267;48.130;-2.040;2023-04-12T13:14:57;20.50;48.80
61398;DHT22;47267;48.130;-2.040;2023-04-12T13:17:25;20.50;48.80
61398;DHT22;47267;48.130;-2.040;2023-04-12T13:19:51;20.50;48.80
61398;DHT22;47267;48.130;-2.040;2023-04-12T13:22:17;20.50;48.80
61398;DHT22;47267;48.130;-2.040;2023-04-12T13:24:43;20.50;48.70
61398;DHT22;47267;48.130;-2.040;2023-04-12T13:27:09;20.50;48.80
61398;DHT22;47267;48.130;-2.040;2023-04-12T13:29:35;20.50;48.70
61398;DHT22;47267;48.130;-2.040;2023-04-12T13:32:01;20.50;48.70
61398;DHT22;47267;48.130;-2.040;2023-04-12T13:34:27;20.50;48.70
61398;DHT22;47267;48.130;-2.040;2023-04-12T13:36:53;20.50;48.70
61398;DHT22;47267;48.130;-2.040;2023-04-12T13:39:19;20.50;48.70
61398;DHT22;47267;48.130;-2.040;2023-04-12T13:41:44;20.50;48.80
61398;DHT22;47267;48.130;-2.040;2023-04-12T13:44:10;20.50;48.70
61398;DHT22;47267;48.130;-2.040;2023-04-12T13:46:36;20.50;48.60
61398;DHT22;47267;48.130;-2.040;2023-04-12T13:49:01;20.50;48.70
61398;DHT22;47267;48.130;-2.040;2023-04-12T13:51:27;20.50;48.60
61398;DHT22;47267;48.130;-2.040;2023-04-12T13:53:54;20.60;48.70
61398;DHT22;47267;48.130;-2.040;2023-04-12T13:56:20;20.60;48.70
61398;DHT22;47267;48.130;-2.040;2023-04-12T13:58:46;20.60;48.60
61398;DHT22;47267;48.130;-2.040;2023-04-12T14:01:12;20.50;48.60
61398;DHT22;47267;48.130;-2.040;2023-04-12T14:03:38;20.60;48.60
61398;DHT22;47267;48.130;-2.040;2023-04-12T14:06:05;20.50;48.60
61398;DHT22;47267;48.130;-2.040;2023-04-12T14:08:32;20.50;48.60
61398;DHT22;47267;48.130;-2.040;2023-04-12T14:10:57;20.50;48.50
61398;DHT22;47267;48.130;-2.040;2023-04-12T14:13:25;20.60;48.60
61398;DHT22;47267;48.130;-2.040;2023-04-12T14:15:51;20.50;48.50
61398;DHT22;47267;48.130;-2.040;2023-04-12T14:18:17;20.60;48.60
61398;DHT22;47267;48.130;-2.040;2023-04-12T14:20:43;20.60;48.60
61398;DHT22;47267;48.130;-2.040;2023-04-12T14:23:13;20.60;48.60
61398;DHT22;47267;48.130;-2.040;2023-04-12T14:25:39;20.60;48.50
61398;DHT22;47267;48.130;-2.040;2023-04-12T14:28:05;20.50;48.50
61398;DHT22;47267;48.130;-2.040;2023-04-12T14:30:31;20.60;48.50
61398;DHT22;47267;48.130;-2.040;2023-04-12T14:32:57;20.60;48.50
61398;DHT22;47267;48.130;-2.040;2023-04-12T14:35:22;20.60;48.50
61398;DHT22;47267;48.130;-2.040;2023-04-12T14:37:48;20.60;48.50
61398;DHT22;47267;48.130;-2.040;2023-04-12T14:40:14;20.60;48.50
61398;DHT22;47267;48.130;-2.040;2023-04-12T14:42:39;20.60;48.50
61398;DHT22;47267;48.130;-2.040;2023-04-12T14:45:06;20.60;48.40
61398;DHT22;47267;48.130;-2.040;2023-04-12T14:47:33;20.60;48.40
61398;DHT22;47267;48.130;-2.040;2023-04-12T14:50:00;20.60;48.50
61398;DHT22;47267;48.130;-2.040;2023-04-12T14:52:26;20.60;48.40
61398;DHT22;47267;48.130;-2.040;2023-04-12T14:54:52;20.60;48.40
61398;DHT22;47267;48.130;-2.040;2023-04-12T14:57:18;20.60;48.40
61398;DHT22;47267;48.130;-2.040;2023-04-12T14:59:43;20.60;48.40
61398;DHT22;47267;48.130;-2.040;2023-04-12T15:02:09;20.60;48.40
61398;DHT22;47267;48.130;-2.040;2023-04-12T15:04:34;20.60;48.30
61398;DHT22;47267;48.130;-2.040;2023-04-12T15:07:00;20.60;48.30
61398;DHT22;47267;48.130;-2.040;2023-04-12T15:09:26;20.60;48.30
61398;DHT22;47267;48.130;-2.040;2023-04-12T15:11:53;20.60;48.40
61398;DHT22;47267;48.130;-2.040;2023-04-12T15:14:28;20.60;48.30
61398;DHT22;47267;48.130;-2.040;2023-04-12T15:16:54;20.60;48.30
61398;DHT22;47267;48.130;-2.040;2023-04-12T15:19:20;20.60;48.30
61398;DHT22;47267;48.130;-2.040;2023-04-12T15:21:50;20.60;48.20
61398;DHT22;47267;48.130;-2.040;2023-04-12T15:24:20;20.60;48.20
61398;DHT22;47267;48.130;-2.040;2023-04-12T15:26:50;20.60;48.20
61398;DHT22;47267;48.130;-2.040;2023-04-12T15:29:18;20.60;48.20
61398;DHT22;47267;48.130;-2.040;2023-04-12T15:31:44;20.60;48.10